Terminal Aerodrome Forecast
Issued by NWS

Home | Current Version | Previous Version | Text Only | Print | Product List | Glossary On
Versions: 1 2 3 4 5 6 7 8 9 10 11 12 13 14
000
FTUS44 KLZK 241300 AAA
TAFADF
TAF AMD
KADF 241336Z 2414/2512 15008KT P6SM VCSH BKN015 OVC050
     FM241700 16008KT P6SM VCSH SCT025 OVC050
      TEMPO 2418/2422 5SM -TSRA BR BKN025CB OVC040
     FM242200 17008G16KT P6SM VCTS SCT020 OVC040CB
      TEMPO 2422/2502 4SM -TSRA BR BKN025CB OVC040
     FM250300 18008KT P6SM -TSRA BKN020CB OVC040
     FM250500 17008G16KT 6SM -TSRA BR BKN020 OVC035CB=

USA.gov is the U.S. government's official web portal to all federal, state and local government web resources and services.